createdAt,value
2018-11-22T00:00:15.948Z,879.00
2018-11-22T00:01:16.433Z,879.00
2018-11-22T00:01:27.365Z,879.00
2018-11-22T00:02:28.880Z,879.00
2018-11-22T00:03:29.375Z,879.00
2018-11-22T00:04:29.826Z,879.00
2018-11-22T00:05:30.239Z,879.00
2018-11-22T00:06:30.538Z,879.00
2018-11-22T00:07:30.884Z,879.00
2018-11-22T00:08:31.231Z,879.00
2018-11-22T00:09:31.993Z,879.00
2018-11-22T00:10:32.363Z,869.00
2018-11-22T00:11:32.819Z,879.00
2018-11-22T00:12:33.543Z,879.00
2018-11-22T00:13:34.142Z,879.00
2018-11-22T00:14:34.468Z,879.00
2018-11-22T00:15:35.245Z,880.00
2018-11-22T00:16:35.945Z,882.00
2018-11-22T00:17:36.598Z,879.00
2018-11-22T00:18:37.084Z,880.00
2018-11-22T00:19:38.013Z,880.00
2018-11-22T00:20:38.350Z,879.00
2018-11-22T00:21:38.874Z,879.00
2018-11-22T00:22:39.254Z,879.00
2018-11-22T00:23:39.688Z,879.00
2018-11-22T00:24:40.157Z,880.00
2018-11-22T00:25:40.584Z,880.00
2018-11-22T00:26:40.893Z,880.00
2018-11-22T00:27:41.424Z,879.00
2018-11-22T00:28:41.967Z,879.00
2018-11-22T00:29:42.337Z,880.00
2018-11-22T00:30:42.888Z,880.00
2018-11-22T00:31:43.296Z,880.00
2018-11-22T00:32:43.777Z,880.00
2018-11-22T00:33:44.170Z,870.00
2018-11-22T00:34:44.563Z,879.00
2018-11-22T00:35:44.942Z,880.00
2018-11-22T00:36:45.741Z,880.00
2018-11-22T00:37:46.120Z,870.00
2018-11-22T00:38:46.647Z,879.00
2018-11-22T00:39:46.102Z,869.00
2018-11-22T00:40:47.622Z,879.00
2018-11-22T00:41:48.231Z,880.00
2018-11-22T00:42:48.639Z,881.00
2018-11-22T00:43:49.018Z,880.00
2018-11-22T00:44:49.325Z,880.00
2018-11-22T00:45:49.651Z,880.00
2018-11-22T00:46:50.043Z,880.00
2018-11-22T00:46:59.024Z,871.00
2018-11-22T00:48:00.308Z,872.00
2018-11-22T00:49:00.694Z,880.00
2018-11-22T00:50:01.079Z,880.00
2018-11-22T00:51:01.726Z,880.00
2018-11-22T00:52:02.113Z,879.00
2018-11-22T00:53:02.842Z,879.00
2018-11-22T00:54:03.452Z,879.00
2018-11-22T00:55:03.996Z,879.00
2018-11-22T00:56:04.297Z,879.00
2018-11-22T00:57:04.645Z,879.00
2018-11-22T00:58:04.942Z,879.00
2018-11-22T00:59:05.299Z,879.00
2018-11-22T01:00:05.669Z,879.00
2018-11-22T01:01:06.079Z,879.00
2018-11-22T01:02:06.491Z,879.00
2018-11-22T01:03:06.874Z,869.00
2018-11-22T01:04:07.259Z,879.00
2018-11-22T01:05:07.699Z,879.00
2018-11-22T01:06:08.259Z,879.00
2018-11-22T01:07:08.677Z,879.00
2018-11-22T01:08:09.001Z,879.00
2018-11-22T01:09:09.431Z,879.00
2018-11-22T01:10:09.766Z,879.00
2018-11-22T01:11:10.701Z,878.00
2018-11-22T01:12:11.215Z,879.00
2018-11-22T01:13:11.838Z,879.00
2018-11-22T01:14:12.525Z,879.00
2018-11-22T01:15:12.865Z,879.00
2018-11-22T01:16:13.220Z,879.00
2018-11-22T01:17:13.707Z,879.00
2018-11-22T01:18:13.720Z,879.00
2018-11-22T01:19:14.028Z,880.00
2018-11-22T01:20:14.525Z,880.00
2018-11-22T01:21:15.179Z,880.00
2018-11-22T01:22:15.652Z,870.00
2018-11-22T01:23:16.340Z,880.00
2018-11-22T01:24:17.209Z,880.00
2018-11-22T01:25:17.766Z,869.00
2018-11-22T01:26:18.185Z,879.00
2018-11-22T01:27:18.625Z,883.00
2018-11-22T01:28:18.990Z,874.00
2018-11-22T01:29:19.403Z,872.00
2018-11-22T01:30:19.772Z,870.00
2018-11-22T01:31:20.294Z,871.00
2018-11-22T01:31:29.244Z,873.00
2018-11-22T01:32:29.556Z,881.00
2018-11-22T01:33:29.871Z,881.00
2018-11-22T01:34:29.513Z,880.00
2018-11-22T01:35:30.877Z,880.00
2018-11-22T01:36:31.255Z,880.00
2018-11-22T01:37:31.828Z,879.00
2018-11-22T01:38:32.193Z,879.00
2018-11-22T01:39:32.737Z,879.00
2018-11-22T01:40:33.238Z,879.00
2018-11-22T01:41:33.798Z,880.00
2018-11-22T01:42:34.721Z,880.00
2018-11-22T01:43:35.256Z,879.00
2018-11-22T01:44:35.934Z,879.00
2018-11-22T01:45:36.317Z,879.00
2018-11-22T01:46:37.069Z,879.00
2018-11-22T01:47:37.750Z,879.00
2018-11-22T01:48:38.167Z,879.00
2018-11-22T01:49:38.565Z,879.00
2018-11-22T01:50:38.904Z,879.00
2018-11-22T01:51:39.384Z,879.00
2018-11-22T01:52:39.895Z,879.00
2018-11-22T01:53:40.252Z,879.00
2018-11-22T01:54:40.631Z,879.00
2018-11-22T01:55:41.155Z,879.00
2018-11-22T01:56:41.763Z,879.00
2018-11-22T01:57:42.063Z,879.00
2018-11-22T01:58:42.606Z,879.00
2018-11-22T01:59:43.065Z,879.00
2018-11-22T02:00:43.371Z,879.00
2018-11-22T02:01:44.176Z,879.00
2018-11-22T02:02:44.554Z,879.00
2018-11-22T02:03:45.097Z,879.00
2018-11-22T02:04:45.999Z,879.00
2018-11-22T02:05:46.344Z,879.00
2018-11-22T02:06:46.939Z,879.00
2018-11-22T02:07:47.513Z,879.00
2018-11-22T02:08:48.076Z,879.00
2018-11-22T02:09:48.413Z,879.00
2018-11-22T02:10:48.967Z,879.00
2018-11-22T02:11:49.533Z,879.00
2018-11-22T02:12:50.006Z,879.00
2018-11-22T02:13:50.400Z,879.00
2018-11-22T02:14:50.728Z,879.00
2018-11-22T02:15:51.064Z,879.00
2018-11-22T02:16:01.007Z,879.00
2018-11-22T02:17:02.398Z,879.00
2018-11-22T02:18:02.825Z,879.00
2018-11-22T02:19:03.321Z,879.00
2018-11-22T02:20:03.673Z,879.00
2018-11-22T02:21:04.004Z,879.00
2018-11-22T02:22:04.442Z,879.00
2018-11-22T02:23:04.972Z,879.00
2018-11-22T02:24:05.476Z,879.00
2018-11-22T02:25:05.859Z,879.00
2018-11-22T02:26:05.856Z,879.00
2018-11-22T02:27:06.373Z,879.00
2018-11-22T02:28:06.938Z,879.00
2018-11-22T02:29:07.432Z,879.00
2018-11-22T02:30:08.076Z,878.00
2018-11-22T02:31:08.377Z,879.00
2018-11-22T02:32:08.780Z,879.00
2018-11-22T02:33:09.203Z,879.00
2018-11-22T02:34:09.550Z,879.00
2018-11-22T02:35:10.180Z,879.00
2018-11-22T02:36:10.551Z,880.00
2018-11-22T02:37:11.202Z,880.00
2018-11-22T02:38:11.585Z,879.00
2018-11-22T02:39:11.919Z,879.00
2018-11-22T02:40:12.791Z,879.00
2018-11-22T02:41:13.180Z,880.00
2018-11-22T02:42:13.799Z,880.00
2018-11-22T02:43:14.191Z,880.00
2018-11-22T02:44:14.956Z,879.00
2018-11-22T02:45:15.420Z,879.00
2018-11-22T02:46:16.238Z,879.00
2018-11-22T02:47:16.550Z,879.00
2018-11-22T02:48:16.942Z,879.00
2018-11-22T02:49:16.266Z,880.00
2018-11-22T02:50:17.810Z,880.00
2018-11-22T02:51:18.255Z,880.00
2018-11-22T02:52:18.643Z,880.00
2018-11-22T02:53:19.585Z,880.00
2018-11-22T02:54:19.889Z,880.00
2018-11-22T02:55:20.561Z,880.00
2018-11-22T02:56:21.011Z,879.00
2018-11-22T02:57:21.436Z,879.00
2018-11-22T02:58:21.719Z,879.00
2018-11-22T02:59:22.137Z,879.00
2018-11-22T03:00:22.364Z,879.00
2018-11-22T03:01:22.682Z,879.00
2018-11-22T03:01:30.747Z,879.00
2018-11-22T03:02:32.462Z,879.00
2018-11-22T03:03:32.824Z,879.00
2018-11-22T03:04:33.216Z,880.00
2018-11-22T03:05:33.602Z,879.00
2018-11-22T03:06:33.995Z,880.00
2018-11-22T03:07:34.449Z,879.00
2018-11-22T03:08:34.875Z,880.00
2018-11-22T03:09:35.200Z,880.00
2018-11-22T03:10:35.821Z,880.00
2018-11-22T03:11:36.153Z,881.00
2018-11-22T03:12:36.419Z,880.00
2018-11-22T03:13:36.943Z,880.00
2018-11-22T03:14:37.236Z,880.00
2018-11-22T03:15:37.545Z,880.00
2018-11-22T03:16:37.926Z,880.00
2018-11-22T03:17:38.701Z,879.00
2018-11-22T03:18:39.615Z,879.00
2018-11-22T03:19:40.376Z,880.00
2018-11-22T03:20:40.955Z,879.00
2018-11-22T03:21:41.422Z,880.00
2018-11-22T03:22:41.773Z,879.00
2018-11-22T03:23:42.361Z,879.00
2018-11-22T03:24:42.773Z,880.00
2018-11-22T03:25:43.163Z,879.00
2018-11-22T03:26:43.769Z,879.00
2018-11-22T03:27:44.110Z,880.00
2018-11-22T03:28:44.616Z,880.00
2018-11-22T03:29:45.475Z,879.00
2018-11-22T03:30:46.006Z,879.00
2018-11-22T03:31:46.288Z,879.00
2018-11-22T03:32:47.103Z,879.00
2018-11-22T03:33:47.890Z,879.00
2018-11-22T03:34:48.561Z,879.00
2018-11-22T03:35:48.881Z,880.00
2018-11-22T03:36:49.177Z,879.00
2018-11-22T03:37:49.848Z,879.00
2018-11-22T03:38:50.218Z,879.00
2018-11-22T03:39:50.474Z,879.00
2018-11-22T03:40:51.221Z,879.00
2018-11-22T03:41:51.582Z,880.00
2018-11-22T03:42:51.978Z,879.00
2018-11-22T03:43:52.724Z,879.00
2018-11-22T03:44:53.408Z,879.00
2018-11-22T03:45:01.692Z,879.00
2018-11-22T03:46:03.020Z,879.00
2018-11-22T03:47:03.357Z,879.00
2018-11-22T03:48:03.848Z,879.00
2018-11-22T03:49:04.513Z,879.00
2018-11-22T03:50:04.865Z,879.00
2018-11-22T03:51:05.213Z,879.00
2018-11-22T03:52:05.647Z,869.00
2018-11-22T03:53:06.568Z,879.00
2018-11-22T03:54:07.361Z,869.00
2018-11-22T03:55:07.770Z,869.00
2018-11-22T03:56:08.142Z,879.00
2018-11-22T03:57:08.473Z,879.00
2018-11-22T03:58:09.103Z,879.00
2018-11-22T03:59:09.547Z,880.00
2018-11-22T04:00:10.048Z,879.00
2018-11-22T04:01:10.335Z,879.00
2018-11-22T04:02:11.187Z,879.00
2018-11-22T04:03:11.889Z,879.00
2018-11-22T04:04:12.444Z,881.00
2018-11-22T04:05:12.914Z,881.00
2018-11-22T04:06:13.258Z,880.00
2018-11-22T04:07:13.788Z,879.00
2018-11-22T04:08:14.428Z,880.00
2018-11-22T04:09:15.094Z,879.00
2018-11-22T04:10:15.381Z,879.00
2018-11-22T04:11:15.754Z,879.00
2018-11-22T04:12:16.208Z,879.00
2018-11-22T04:13:16.526Z,879.00
2018-11-22T04:14:17.333Z,879.00
2018-11-22T04:15:17.757Z,879.00
2018-11-22T04:16:18.066Z,880.00
2018-11-22T04:17:18.378Z,881.00
2018-11-22T04:18:18.808Z,883.00
2018-11-22T04:19:19.271Z,882.00
2018-11-22T04:20:19.671Z,882.00
2018-11-22T04:21:20.004Z,881.00
2018-11-22T04:22:20.960Z,881.00
2018-11-22T04:23:21.471Z,880.00
2018-11-22T04:24:21.827Z,880.00
2018-11-22T04:25:22.610Z,880.00
2018-11-22T04:26:24.114Z,880.00
2018-11-22T04:27:22.480Z,880.00
2018-11-22T04:28:23.792Z,881.00
2018-11-22T04:29:24.090Z,883.00
2018-11-22T04:30:24.463Z,882.00
2018-11-22T04:30:34.443Z,881.00
2018-11-22T04:31:34.988Z,881.00
2018-11-22T04:32:35.439Z,883.00
2018-11-22T04:33:35.839Z,885.00
2018-11-22T04:34:36.320Z,884.00
2018-11-22T04:35:36.444Z,884.00
2018-11-22T04:36:37.091Z,883.00
2018-11-22T04:37:37.411Z,884.00
2018-11-22T04:38:38.125Z,883.00
2018-11-22T04:39:38.405Z,882.00
2018-11-22T04:40:38.800Z,881.00
2018-11-22T04:41:39.229Z,881.00
2018-11-22T04:42:39.543Z,881.00
2018-11-22T04:43:38.965Z,880.00
2018-11-22T04:44:40.322Z,880.00
2018-11-22T04:45:40.607Z,880.00
2018-11-22T04:46:41.098Z,881.00
2018-11-22T04:47:41.418Z,880.00
2018-11-22T04:48:41.851Z,880.00
2018-11-22T04:49:42.374Z,880.00
2018-11-22T04:50:42.951Z,880.00
2018-11-22T04:51:43.479Z,880.00
2018-11-22T04:52:43.921Z,880.00
2018-11-22T04:53:44.450Z,880.00
2018-11-22T04:54:44.941Z,880.00
2018-11-22T04:55:45.725Z,880.00
2018-11-22T04:56:46.450Z,880.00
2018-11-22T04:57:46.913Z,880.00
2018-11-22T04:58:47.338Z,880.00
2018-11-22T04:59:47.670Z,880.00
2018-11-22T05:00:48.140Z,880.00
2018-11-22T05:01:48.606Z,880.00
2018-11-22T05:02:49.116Z,881.00
2018-11-22T05:03:49.700Z,883.00
2018-11-22T05:04:50.094Z,884.00
2018-11-22T05:05:50.487Z,884.00
2018-11-22T05:06:50.941Z,876.00
2018-11-22T05:07:51.252Z,883.00
2018-11-22T05:08:51.669Z,882.00
2018-11-22T05:09:50.898Z,881.00
2018-11-22T05:10:52.226Z,881.00
2018-11-22T05:11:52.999Z,880.00
2018-11-22T05:12:53.451Z,881.00
2018-11-22T05:13:54.063Z,880.00
2018-11-22T05:14:54.385Z,880.00
2018-11-22T05:15:54.671Z,880.00
2018-11-22T05:16:02.751Z,880.00
2018-11-22T05:17:04.217Z,880.00
2018-11-22T05:18:04.925Z,881.00
2018-11-22T05:19:05.517Z,880.00
2018-11-22T05:20:06.001Z,880.00
2018-11-22T05:21:06.397Z,881.00
2018-11-22T05:22:06.785Z,881.00
2018-11-22T05:23:07.117Z,882.00
2018-11-22T05:24:07.744Z,881.00
2018-11-22T05:25:08.241Z,881.00
2018-11-22T05:26:09.160Z,881.00
2018-11-22T05:27:09.557Z,881.00
2018-11-22T05:28:10.016Z,881.00
2018-11-22T05:29:12.496Z,881.00
2018-11-22T05:30:09.971Z,880.00
2018-11-22T05:31:11.452Z,880.00
2018-11-22T05:32:11.878Z,880.00
2018-11-22T05:33:12.342Z,880.00
2018-11-22T05:34:12.425Z,880.00
2018-11-22T05:35:12.987Z,881.00
2018-11-22T05:36:13.382Z,883.00
2018-11-22T05:37:13.875Z,883.00
2018-11-22T05:38:14.268Z,881.00
2018-11-22T05:39:14.851Z,881.00
2018-11-22T05:40:14.300Z,881.00
2018-11-22T05:41:15.774Z,881.00
2018-11-22T05:42:16.089Z,883.00
2018-11-22T05:43:16.639Z,884.00
2018-11-22T05:44:16.970Z,884.00
2018-11-22T05:45:17.433Z,888.00
2018-11-22T05:46:17.894Z,886.00
2018-11-22T05:47:18.417Z,885.00
2018-11-22T05:48:18.777Z,884.00
2018-11-22T05:49:19.135Z,884.00
2018-11-22T05:50:19.709Z,885.00
2018-11-22T05:51:20.479Z,884.00
2018-11-22T05:52:20.920Z,883.00
2018-11-22T05:53:21.268Z,883.00
2018-11-22T05:54:21.759Z,883.00
2018-11-22T05:55:22.242Z,882.00
2018-11-22T05:56:22.710Z,882.00
2018-11-22T05:57:23.072Z,881.00
2018-11-22T05:58:23.502Z,881.00
2018-11-22T05:59:23.827Z,881.00
2018-11-22T06:00:24.147Z,881.00
2018-11-22T06:01:24.658Z,881.00
2018-11-22T06:02:25.130Z,884.00
2018-11-22T06:02:33.611Z,876.00
2018-11-22T06:03:34.991Z,883.00
2018-11-22T06:04:35.720Z,885.00
2018-11-22T06:05:36.039Z,889.00
2018-11-22T06:06:36.498Z,886.00
2018-11-22T06:07:37.239Z,885.00
2018-11-22T06:08:37.601Z,884.00
2018-11-22T06:09:38.036Z,883.00
2018-11-22T06:10:38.433Z,882.00
2018-11-22T06:11:38.885Z,882.00
2018-11-22T06:12:39.339Z,881.00
2018-11-22T06:13:39.707Z,872.00
2018-11-22T06:14:40.135Z,876.00
2018-11-22T06:15:40.532Z,874.00
2018-11-22T06:16:41.090Z,883.00
2018-11-22T06:17:41.260Z,882.00
2018-11-22T06:18:41.676Z,882.00
2018-11-22T06:19:42.073Z,883.00
2018-11-22T06:20:42.448Z,883.00
2018-11-22T06:21:42.850Z,885.00
2018-11-22T06:22:43.498Z,886.00
2018-11-22T06:23:44.437Z,884.00
2018-11-22T06:24:43.335Z,883.00
2018-11-22T06:25:44.687Z,882.00
2018-11-22T06:26:45.169Z,881.00
2018-11-22T06:27:45.849Z,883.00
2018-11-22T06:28:46.205Z,883.00
2018-11-22T06:29:46.712Z,882.00
2018-11-22T06:30:47.136Z,881.00
2018-11-22T06:31:47.621Z,881.00
2018-11-22T06:32:48.052Z,880.00
2018-11-22T06:33:48.556Z,881.00
2018-11-22T06:34:48.994Z,881.00
2018-11-22T06:35:49.460Z,881.00
2018-11-22T06:36:50.065Z,881.00
2018-11-22T06:37:50.634Z,880.00
2018-11-22T06:38:51.096Z,880.00
2018-11-22T06:39:51.480Z,880.00
2018-11-22T06:40:51.975Z,881.00
2018-11-22T06:41:52.001Z,881.00
2018-11-22T06:42:52.648Z,881.00
2018-11-22T06:43:52.628Z,881.00
2018-11-22T06:44:53.010Z,881.00
2018-11-22T06:45:53.330Z,881.00
2018-11-22T06:46:53.957Z,881.00
2018-11-22T06:47:54.331Z,882.00
2018-11-22T06:48:05.437Z,881.00
2018-11-22T06:49:06.996Z,881.00
2018-11-22T06:50:07.360Z,872.00
2018-11-22T06:51:07.879Z,880.00
2018-11-22T06:52:08.351Z,880.00
2018-11-22T06:53:08.777Z,881.00
2018-11-22T06:54:09.113Z,881.00
2018-11-22T06:55:12.225Z,880.00
2018-11-22T06:56:09.946Z,880.00
2018-11-22T06:57:10.419Z,881.00
2018-11-22T06:58:10.945Z,881.00
2018-11-22T06:59:11.345Z,880.00
2018-11-22T07:00:11.713Z,880.00
2018-11-22T07:01:12.143Z,880.00
2018-11-22T07:02:12.572Z,880.00
2018-11-22T07:03:13.054Z,880.00
2018-11-22T07:04:13.497Z,880.00
2018-11-22T07:05:13.987Z,880.00
2018-11-22T07:06:14.370Z,880.00
2018-11-22T07:07:14.697Z,880.00
2018-11-22T07:08:14.705Z,880.00
2018-11-22T07:09:15.459Z,880.00
2018-11-22T07:10:16.036Z,880.00
2018-11-22T07:11:16.860Z,880.00
2018-11-22T07:12:17.633Z,880.00
2018-11-22T07:13:18.041Z,880.00
2018-11-22T07:14:18.932Z,879.00
2018-11-22T07:15:19.398Z,880.00
2018-11-22T07:16:19.890Z,880.00
2018-11-22T07:17:20.233Z,880.00
2018-11-22T07:18:20.562Z,880.00
2018-11-22T07:19:21.253Z,880.00
2018-11-22T07:20:21.651Z,880.00
2018-11-22T07:21:22.574Z,880.00
2018-11-22T07:22:23.036Z,880.00
2018-11-22T07:23:23.581Z,880.00
2018-11-22T07:24:23.949Z,879.00
2018-11-22T07:25:24.144Z,880.00
2018-11-22T07:26:23.553Z,879.00
2018-11-22T07:27:24.939Z,879.00
2018-11-22T07:28:25.288Z,879.00
2018-11-22T07:29:26.250Z,879.00
2018-11-22T07:30:26.587Z,879.00
2018-11-22T07:31:26.994Z,879.00
2018-11-22T07:32:27.425Z,879.00
2018-11-22T07:33:28.045Z,879.00
2018-11-22T07:34:28.517Z,879.00
2018-11-22T07:34:36.937Z,879.00
2018-11-22T07:35:38.321Z,879.00
2018-11-22T07:36:38.838Z,879.00
2018-11-22T07:37:39.219Z,879.00
2018-11-22T07:38:39.734Z,879.00
2018-11-22T07:39:39.930Z,879.00
2018-11-22T07:40:40.685Z,879.00
2018-11-22T07:41:41.227Z,879.00
2018-11-22T07:42:41.595Z,879.00
2018-11-22T07:43:42.333Z,879.00
2018-11-22T07:44:42.712Z,879.00
2018-11-22T07:45:43.079Z,879.00
2018-11-22T07:46:43.725Z,879.00
2018-11-22T07:47:44.399Z,879.00
2018-11-22T07:48:44.868Z,879.00
2018-11-22T07:49:45.658Z,879.00
2018-11-22T07:50:46.100Z,879.00
2018-11-22T07:51:46.476Z,879.00
2018-11-22T07:52:46.968Z,879.00
2018-11-22T07:53:47.386Z,879.00
2018-11-22T07:54:47.906Z,879.00
2018-11-22T07:55:48.544Z,879.00
2018-11-22T07:56:48.967Z,879.00
2018-11-22T07:57:49.350Z,878.00
2018-11-22T07:58:49.687Z,878.00
2018-11-22T07:59:50.635Z,878.00
2018-11-22T08:00:51.248Z,878.00
2018-11-22T08:01:51.827Z,878.00
2018-11-22T08:02:52.173Z,878.00
2018-11-22T08:03:52.517Z,878.00
2018-11-22T08:04:52.988Z,878.00
2018-11-22T08:05:53.749Z,878.00
2018-11-22T08:06:53.320Z,878.00
2018-11-22T08:07:54.674Z,878.00
2018-11-22T08:08:55.144Z,877.00
2018-11-22T08:09:55.772Z,877.00
2018-11-22T08:10:56.255Z,876.00
2018-11-22T08:11:56.908Z,876.00
2018-11-22T08:12:57.595Z,876.00
2018-11-22T08:13:56.884Z,876.00
2018-11-22T08:14:58.339Z,876.00
2018-11-22T08:15:58.785Z,876.00
2018-11-22T08:16:59.268Z,876.00
2018-11-22T08:17:59.699Z,876.00
2018-11-22T08:19:00.251Z,876.00
2018-11-22T08:20:00.622Z,876.00
2018-11-22T08:20:10.608Z,876.00
2018-11-22T08:21:11.985Z,876.00
2018-11-22T08:22:12.421Z,876.00
2018-11-22T08:23:12.796Z,877.00
2018-11-22T08:24:13.642Z,878.00
2018-11-22T08:25:14.167Z,877.00
2018-11-22T08:26:14.532Z,876.00
2018-11-22T08:27:14.896Z,877.00
2018-11-22T08:28:15.379Z,878.00
2018-11-22T08:29:15.722Z,878.00
2018-11-22T08:30:16.041Z,878.00
2018-11-22T08:31:16.735Z,880.00
2018-11-22T08:32:17.164Z,879.00
2018-11-22T08:33:17.633Z,879.00
2018-11-22T08:34:18.365Z,878.00
2018-11-22T08:35:18.927Z,878.00
2018-11-22T08:36:19.447Z,877.00
2018-11-22T08:37:19.953Z,878.00
2018-11-22T08:38:20.346Z,877.00
2018-11-22T08:39:20.749Z,877.00
2018-11-22T08:40:21.113Z,876.00
2018-11-22T08:41:21.501Z,867.00
2018-11-22T08:42:21.921Z,867.00
2018-11-22T08:43:22.360Z,868.00
2018-11-22T08:44:22.778Z,876.00
2018-11-22T08:45:23.520Z,876.00
2018-11-22T08:46:24.073Z,876.00
2018-11-22T08:47:24.616Z,876.00
2018-11-22T08:48:24.950Z,876.00
2018-11-22T08:49:25.113Z,876.00
2018-11-22T08:50:25.997Z,876.00
2018-11-22T08:51:26.444Z,876.00
2018-11-22T08:52:26.824Z,876.00
2018-11-22T08:53:27.230Z,876.00
2018-11-22T08:54:27.516Z,874.00
2018-11-22T08:55:27.832Z,874.00
2018-11-22T08:56:28.303Z,874.00
2018-11-22T08:57:28.650Z,876.00
2018-11-22T08:58:29.004Z,876.00
2018-11-22T08:59:29.341Z,876.00
2018-11-22T09:00:29.780Z,876.00
2018-11-22T09:01:29.173Z,874.00
2018-11-22T09:02:30.597Z,874.00
2018-11-22T09:03:31.122Z,874.00
2018-11-22T09:04:53.534Z,876.00
2018-11-22T09:05:53.856Z,876.00
2018-11-22T09:06:54.335Z,876.00
2018-11-22T09:07:54.708Z,876.00
2018-11-22T09:08:55.066Z,874.00
2018-11-22T09:09:55.428Z,874.00
2018-11-22T09:10:56.121Z,874.00
2018-11-22T09:11:56.446Z,874.00
2018-11-22T09:12:56.837Z,874.00
2018-11-22T09:13:57.190Z,874.00
2018-11-22T09:14:57.556Z,874.00
2018-11-22T09:15:58.447Z,874.00
2018-11-22T09:16:58.816Z,876.00
2018-11-22T09:17:59.353Z,878.00
2018-11-22T09:18:59.747Z,876.00
2018-11-22T09:19:59.763Z,879.00
2018-11-22T09:21:00.187Z,880.00
2018-11-22T09:22:00.851Z,878.00
2018-11-22T09:23:01.567Z,877.00
2018-11-22T09:24:01.956Z,876.00
2018-11-22T09:25:02.475Z,877.00
2018-11-22T09:26:02.707Z,876.00
2018-11-22T09:27:03.156Z,877.00
2018-11-22T09:28:03.582Z,880.00
2018-11-22T09:29:04.127Z,880.00
2018-11-22T09:30:04.893Z,878.00
2018-11-22T09:31:05.394Z,878.00
2018-11-22T09:32:05.803Z,878.00
2018-11-22T09:33:05.175Z,877.00
2018-11-22T09:34:06.601Z,876.00
2018-11-22T09:35:07.267Z,876.00
2018-11-22T09:36:06.581Z,876.00
2018-11-22T09:37:08.136Z,876.00
2018-11-22T09:38:08.507Z,876.00
2018-11-22T09:39:09.058Z,876.00
2018-11-22T09:40:09.645Z,876.00
2018-11-22T09:41:10.145Z,876.00
2018-11-22T09:42:10.036Z,877.00
2018-11-22T09:43:10.783Z,877.00
2018-11-22T09:44:12.353Z,876.00
2018-11-22T09:45:12.772Z,877.00
2018-11-22T09:46:13.123Z,876.00
2018-11-22T09:47:13.641Z,876.00
2018-11-22T09:48:14.297Z,876.00
2018-11-22T09:49:14.684Z,874.00
2018-11-22T09:50:15.102Z,874.00
2018-11-22T09:51:15.541Z,874.00
2018-11-22T09:52:16.200Z,876.00
2018-11-22T09:52:24.628Z,874.00
2018-11-22T09:53:25.960Z,877.00
2018-11-22T09:54:26.778Z,876.00
2018-11-22T09:55:27.145Z,874.00
2018-11-22T09:56:27.760Z,874.00
2018-11-22T09:57:28.297Z,874.00
2018-11-22T09:58:29.120Z,874.00
2018-11-22T09:59:29.763Z,876.00
2018-11-22T10:00:30.518Z,874.00
2018-11-22T10:01:30.888Z,874.00
2018-11-22T10:02:31.259Z,874.00
2018-11-22T10:03:31.777Z,873.00
2018-11-22T10:04:32.206Z,874.00
2018-11-22T10:05:31.860Z,874.00
2018-11-22T10:06:33.236Z,874.00
2018-11-22T10:07:33.731Z,874.00
2018-11-22T10:08:34.128Z,874.00
2018-11-22T10:09:33.594Z,874.00
2018-11-22T10:10:34.982Z,876.00
2018-11-22T10:11:35.634Z,874.00
2018-11-22T10:12:36.292Z,876.00
2018-11-22T10:13:36.092Z,874.00
2018-11-22T10:14:37.984Z,874.00
2018-11-22T10:15:38.806Z,873.00
2018-11-22T10:16:39.258Z,873.00
2018-11-22T10:17:39.758Z,874.00
2018-11-22T10:18:40.206Z,873.00
2018-11-22T10:19:39.503Z,873.00
2018-11-22T10:20:41.034Z,873.00
2018-11-22T10:21:41.898Z,874.00
2018-11-22T10:22:42.237Z,873.00
2018-11-22T10:23:42.828Z,873.00
2018-11-22T10:24:42.357Z,873.00
2018-11-22T10:25:43.938Z,876.00
2018-11-22T10:26:44.335Z,874.00
2018-11-22T10:27:44.676Z,874.00
2018-11-22T10:28:45.081Z,874.00
2018-11-22T10:29:45.515Z,874.00
2018-11-22T10:30:45.919Z,874.00
2018-11-22T10:31:46.374Z,874.00
2018-11-22T10:32:45.317Z,874.00
2018-11-22T10:33:46.951Z,874.00
2018-11-22T10:34:47.619Z,873.00
2018-11-22T10:35:48.048Z,866.00
2018-11-22T10:36:48.733Z,873.00
2018-11-22T10:37:49.316Z,873.00
2018-11-22T10:38:48.660Z,873.00
2018-11-22T10:39:50.230Z,874.00
2018-11-22T10:40:50.706Z,876.00
2018-11-22T10:41:51.215Z,876.00
2018-11-22T10:42:51.750Z,874.00
2018-11-22T10:43:00.218Z,874.00
2018-11-22T10:44:01.485Z,876.00
2018-11-22T10:45:02.078Z,876.00
2018-11-22T10:46:02.714Z,878.00
2018-11-22T10:47:03.667Z,878.00
2018-11-22T10:48:04.286Z,876.00
2018-11-22T10:49:05.002Z,876.00
2018-11-22T10:50:05.599Z,876.00
2018-11-22T10:51:06.182Z,874.00
2018-11-22T10:52:06.531Z,874.00
2018-11-22T10:53:06.974Z,874.00
2018-11-22T10:54:07.395Z,876.00
2018-11-22T10:55:07.880Z,874.00
2018-11-22T10:56:08.286Z,874.00
2018-11-22T10:57:08.642Z,874.00
2018-11-22T10:58:09.022Z,876.00
2018-11-22T10:59:09.560Z,874.00
2018-11-22T11:00:10.384Z,874.00
2018-11-22T11:01:10.983Z,873.00
2018-11-22T11:02:11.318Z,873.00
2018-11-22T11:03:11.398Z,873.00
2018-11-22T11:04:11.899Z,872.00
2018-11-22T11:05:12.253Z,872.00
2018-11-22T11:06:12.370Z,872.00
2018-11-22T11:07:12.734Z,873.00
2018-11-22T11:08:13.094Z,874.00
2018-11-22T11:09:13.472Z,873.00
2018-11-22T11:10:14.293Z,873.00
2018-11-22T11:11:14.673Z,872.00
2018-11-22T11:12:15.146Z,865.00
2018-11-22T11:13:16.564Z,865.00
2018-11-22T11:14:16.537Z,873.00
2018-11-22T11:15:17.049Z,873.00
2018-11-22T11:16:17.465Z,873.00
2018-11-22T11:17:17.888Z,872.00
2018-11-22T11:18:18.259Z,871.00
2018-11-22T11:19:18.795Z,874.00
2018-11-22T11:20:19.214Z,874.00
2018-11-22T11:21:19.646Z,874.00
2018-11-22T11:22:20.119Z,874.00
2018-11-22T11:23:20.647Z,874.00
2018-11-22T11:24:20.792Z,873.00
2018-11-22T11:25:21.048Z,873.00
2018-11-22T11:26:21.583Z,873.00
2018-11-22T11:27:21.027Z,874.00
2018-11-22T11:28:22.615Z,874.00
2018-11-22T11:28:31.471Z,874.00
2018-11-22T11:29:32.356Z,874.00
2018-11-22T11:30:32.845Z,874.00
2018-11-22T11:31:33.219Z,876.00
2018-11-22T11:32:33.575Z,876.00
2018-11-22T11:33:34.093Z,876.00
2018-11-22T11:34:34.489Z,876.00
2018-11-22T11:35:34.959Z,876.00
2018-11-22T11:36:35.941Z,874.00
2018-11-22T11:37:36.505Z,876.00
2018-11-22T11:38:36.802Z,874.00
2018-11-22T11:39:37.242Z,874.00
2018-11-22T11:40:37.758Z,874.00
2018-11-22T11:41:38.151Z,873.00
2018-11-22T11:42:38.517Z,873.00
2018-11-22T11:43:39.093Z,872.00
2018-11-22T11:44:39.668Z,871.00
2018-11-22T11:45:40.113Z,871.00
2018-11-22T11:46:40.522Z,871.00
2018-11-22T11:47:40.888Z,871.00
2018-11-22T11:48:41.344Z,873.00
2018-11-22T11:49:41.701Z,871.00
2018-11-22T11:50:42.113Z,871.00
2018-11-22T11:51:42.601Z,874.00
2018-11-22T11:52:43.024Z,873.00
2018-11-22T11:53:43.633Z,874.00
2018-11-22T11:54:44.185Z,873.00
2018-11-22T11:55:45.167Z,873.00
2018-11-22T11:56:45.724Z,873.00
2018-11-22T11:57:46.147Z,874.00
2018-11-22T11:58:46.649Z,873.00
2018-11-22T11:59:47.123Z,872.00
2018-11-22T12:00:47.712Z,871.00
2018-11-22T12:01:48.175Z,871.00
2018-11-22T12:02:48.541Z,871.00
2018-11-22T12:03:48.940Z,874.00
2018-11-22T12:04:49.778Z,874.00
2018-11-22T12:05:49.063Z,874.00
2018-11-22T12:06:50.664Z,874.00
2018-11-22T12:07:51.175Z,874.00
2018-11-22T12:08:51.658Z,873.00
2018-11-22T12:09:56.227Z,871.00
2018-11-22T12:10:51.584Z,872.00
2018-11-22T12:11:53.012Z,872.00
2018-11-22T12:12:53.516Z,873.00
2018-11-22T12:13:53.922Z,872.00
2018-11-22T12:14:02.315Z,871.00
2018-11-22T12:15:03.132Z,873.00
2018-11-22T12:16:04.051Z,873.00
2018-11-22T12:17:05.618Z,871.00
2018-11-22T12:18:05.150Z,871.00
2018-11-22T12:19:05.545Z,870.00
2018-11-22T12:20:06.142Z,871.00
2018-11-22T12:21:06.811Z,870.00